General Aviation Weather

Text Reports

Enter one or more of the following location identifiers separated by a space:

Zip Code, Four-Character ICAO or Three-Character IATA airport codes.

METAR - Aviation Routine Weather Report
KDUC - Duncan, Oklahoma
Updated at 11:55 AM GMT on October 25, 2014 (6:55 AM CDT):
METAR KDUC 251155Z AUTO 00000KT 5SM BR CLR 15/15 A3009 RMK AO2
TAF - Terminal Area Forecast
KDUC - Duncan, Oklahoma
Updated at 11:55 AM GMT on October 25, 2014 (6:55 AM CDT):
No TAF is currently available for this location.
Decoded:
No decoded TAF is available.
PIREP - Pilot Weather Report
KDUC - Duncan, Oklahoma
Updated at 11:55 AM GMT on October 25, 2014 (6:55 AM CDT):
No PIREP is currently available for this location.
AIRMET - Airmens Meteorological Information
KDUC - Duncan, Oklahoma
Updated at 11:55 AM GMT on October 25, 2014 (6:55 AM CDT):
No AIRMET is currently available for this location.
SIGMET - Significant Meteorological Information
KDUC - Duncan, Oklahoma
Updated at 11:55 AM GMT on October 25, 2014 (6:55 AM CDT):
No SIGMET is currently available for this location.
NOTAM - Notice to Airmen
KDUC - Duncan, Oklahoma
Updated at 11:55 AM GMT on October 25, 2014 (6:55 AM CDT):
No NOTAM is currently available for this location.
Forecast Area
KDUC - Duncan, Oklahoma
Updated at 11:55 AM GMT on October 25, 2014 (6:55 AM CDT):
No NOTAM is currently available for this location.
Aviation Weather Maps